x

Central Caribbean - 210 Nm Sse Of Kingston, Jamaica (42058) Wave Buoy

9:50 - Thu 29th Sep 2016 All times are EST. -5 hours from GMT.

  • Sig Wave height 5.2ft
  • Swell Direction
  • Peak Period 7s
  • Average Period 5s
  • Wind
    18mph, 22mph gusts
  • Sea Temp 85°f
  • Air Temp 85°f
  • Sea Pressure 1014.1mb
  • Central Caribbean - 210 Nm Sse Of Kingston, Jamaica
  • Central Caribbean - 210 Nm Sse Of Kingston, Jamaica

More Historic Weather Station data

Upgrade to MSW Pro to gain access to the past 30 days of data for over 8000 Wavebouys and Weather Stations around the globe.

Join Pro

Comparision Forecast

View Surf forecast
   
jeu. 09/29 9:50 5ft 7s 5s 18 22 mph 1014.1mb 85f 85f
8:50 5ft 7s 5s 20 25 mph 1013.7mb 85f 85f
7:50 5ft 6s 5s 20 25 mph 1013.4mb 85f 85f
6:50 5ft 7s 5s 18 22 mph 1013.1mb 85f 85f
5:50 5ft 6s 5s 18 22 mph 1012.7mb 85f 85f
4:50 5.5ft 7s 5s 20 22 mph 1012.3mb 85f 85f
3:50 5.5ft 7s 5s 22 25 mph 1012.2mb 85f 85f
2:50 5ft 6s 5s 20 25 mph 1012.2mb 85f 85f
1:50 5ft 7s 5s 20 22 mph 1012.8mb 85f 85f
12:50 5ft 7s 5s 18 22 mph 1013.4mb 85f 85f
mer. 09/28 11:50 5ft 6s 5s 18 20 mph 1013.7mb 85f 85f
10:50 5ft 7s 5s 18 20 mph 1013.7mb 85f 85f
9:50 5ft 6s 5s 20 22 mph 1013.6mb 85f 85f
8:50 5ft 7s 5s 20 22 mph 1013.1mb 85f 85f
7:50 5ft 7s 5s 18 22 mph 1012.5mb 85f 85f
6:50 5ft 6s 5s 18 20 mph 1012.2mb 85f 85f
5:50 5.5ft 7s 5s 18 22 mph 1012mb 85f 85f
4:50 5.5ft 7s 5s 18 22 mph 1011.9mb 85f 85f
3:50 5ft 6s 5s 18 20 mph 1011.7mb 85f 85f
2:50 5ft 6s 5s 18 22 mph 1011.7mb 85f 85f
1:50 5ft 7s 5s 18 22 mph 1012.4mb 85f 85f
12:50 5.5ft 7s 5s 20 25 mph 1013.1mb 85f 85f
11:50 5ft 6s 5s 16 18 mph 1014.1mb 85f 84f
10:50 5.5ft 6s 5s 18 22 mph 1014.3mb 85f 85f
9:50 5ft 7s 5s 22 29 mph 1014.3mb 85f 85f
8:50 5ft 6s 5s 22 25 mph 1014.3mb 85f 85f
7:50 5ft 6s 5s 22 25 mph 1013.6mb 85f 85f
6:50 5.5ft 6s 5s 20 22 mph 1013mb 85f 85f
5:50 5.5ft 6s 5s 20 22 mph 1012.5mb 85f 84f
4:50 5.5ft 6s 5s 20 25 mph 1011.7mb 85f 84f
3:50 5ft 7s 5s 18 22 mph 1011.6mb 85f 84f
2:50 5ft 7s 5s 20 25 mph 1011.3mb 85f 84f
1:50 6ft 6s 5s 22 25 mph 1011.4mb 85f 84f
12:50 5.5ft 7s 5s 20 25 mph 1012mb 85f 85f
mar. 09/27 11:50 5ft 7s 5s 20 25 mph 1012.6mb 85f 85f
10:50 5ft 7s 5s 20 25 mph 1012.8mb 85f 85f
9:50 5ft 6s 5s 20 25 mph 1012.8mb 85f 85f
8:50 5ft 6s 5s 22 25 mph 1012.2mb 85f 85f
7:50 4.5ft 6s 5s 22 25 mph 1011.6mb 85f 85f
6:50 5ft 6s 5s 20 22 mph 1011mb 85f 85f
5:50 5ft 6s 5s 20 22 mph 1010.3mb 85f 85f
4:50 5ft 7s 5s 20 22 mph 1009.8mb 85f 85f
3:50 5ft 6s 5s 22 27 mph 1009.7mb 85f 85f
2:50 4.5ft 6s 4s 20 22 mph 1010.1mb 85f 85f
1:50 5ft 6s 5s 20 25 mph 1010.6mb 85f 85f
12:50 5ft 6s 5s 20 22 mph 1011.3mb 85f 85f
11:50 5ft 6s 5s 20 25 mph 1011.8mb 85f 85f
10:50 4.5ft 6s 4s 20 25 mph 1012.5mb 85f 85f
9:50 4.5ft 6s 4s 22 25 mph 1012.5mb 85f 85f
8:50 4.5ft 6s 4s 22 25 mph 1012.2mb 85f 85f
7:50 4.5ft 6s 5s 20 22 mph 1012.1mb 85f 85f
6:50 4.5ft 6s 4s 20 22 mph 1011.9mb 85f 85f
5:50 4.5ft 6s 4s 20 22 mph 1011.2mb 85f 84f
4:50 4.5ft 6s 4s 20 22 mph 1011mb 85f 84f
3:50 4.5ft 6s 4s 20 22 mph 1010.4mb 85f 84f
2:50 4.5ft 6s 4s 18 22 mph 1010.3mb 85f 84f
1:50 4.5ft 6s 4s 18 22 mph 1010.6mb 85f 85f
12:50 4.5ft 6s 4s 20 22 mph 1011.4mb 85f 84f
lun. 09/26 11:50 4.5ft 6s 4s 18 22 mph 1011.8mb 85f 84f
10:50 4.5ft 6s 4s 20 22 mph 1012.2mb 85f 85f
9:50 4ft 6s 4s 18 20 mph 1012.3mb 85f 85f
8:50 4ft 6s 4s 18 25 mph 1012mb 85f 85f
7:50 4ft 6s 4s 18 20 mph 1011.5mb 85f 85f
6:50 4.5ft 6s 4s 18 20 mph 1010.7mb 85f 85f
5:50 4ft 6s 4s 18 25 mph 1010.4mb 85f 85f
4:50 4.5ft 6s 4s 18 20 mph 1010.1mb 85f 84f
3:50 4ft 7s 4s 16 18 mph 1010.1mb 85f 85f
2:50 4.5ft 6s 5s 18 20 mph 1010.3mb 85f 85f
1:50 4ft 7s 5s 16 18 mph 1010.9mb 85f 85f
12:50 4.5ft 6s 5s 13 16 mph 1011.4mb 85f 84f
11:50 4.5ft 7s 5s 16 18 mph 1012.1mb 85f 84f
10:50 4.5ft 6s 5s 16 18 mph 1012.6mb 84f 84f
9:50 4.5ft 7s 5s 16 18 mph 1012.9mb 84f 85f
8:50 4.5ft 6s 5s 16 20 mph 1013.1mb 84f 84f
7:50 4.5ft 6s 5s 18 20 mph 1012.7mb 84f 85f
6:50 4.5ft 7s 5s 18 20 mph 1011.9mb 84f 84f
5:50 4.5ft 6s 5s 18 20 mph 1011.8mb 84f 84f
4:50 4.5ft 6s 5s 16 20 mph 1011.4mb 84f 84f
3:50 4.5ft 7s 5s 18 22 mph 1011.1mb 84f 84f
2:50 5ft 7s 5s 18 20 mph 1011.3mb 85f 84f
1:50 4.5ft 7s 5s 18 22 mph 1011.5mb 85f 84f
12:50 4.5ft 7s 5s 18 20 mph 1012.4mb 85f 84f
dim. 09/25 11:50 4.5ft 7s 5s 18 20 mph 1012.7mb 85f 84f
10:50 5ft 7s 5s 18 22 mph 1013.2mb 85f 84f
9:50 5ft 7s 5s 20 25 mph 1013.2mb 85f 85f
8:50 4.5ft 7s 5s 20 22 mph 1013.1mb 85f 85f
7:50 4.5ft 7s 5s 18 22 mph 1012.5mb 85f 85f
6:50 4.5ft 7s 5s 16 20 mph 1011.7mb 85f 85f
5:50 4.5ft 7s 5s 18 20 mph 1011mb 85f 85f
4:50 5ft 8s 5s 16 18 mph 1010.7mb 85f 85f
3:50 5.5ft 7s 5s 16 18 mph 1010.7mb 85f 85f